Time;durP1;ratioP1;P1;durP2;ratioP2;P2;SDS_P1;SDS_P2;PMS_P1;PMS_P2;Temp;Humidity;BMP_temperature;BMP_pressure;BME280_temperature;BME280_humidity;BME280_pressure;Samples;Min_cycle;Max_cycle;Signal;HPM_P1;HPM_P2
2022/02/19 00:00:53;;;;;;;4.55;1.77;;;8.40;65.80;;;;;;2099758;28;20104;-72
2022/02/19 00:02:02;;;;;;;4.82;1.70;;;8.30;65.90;;;;;;2100502;28;20099;-72
2022/02/19 00:03:03;;;;;;;8.77;1.75;;;8.30;67.20;;;;;;2100482;28;20040;-71
2022/02/19 00:04:07;;;;;;;5.32;1.80;;;8.30;66.90;;;;;;2098179;28;20035;-72
2022/02/19 00:05:08;;;;;;;8.93;1.50;;;8.20;67.30;;;;;;2114073;28;20036;-71
2022/02/19 00:06:09;;;;;;;4.93;1.70;;;8.20;68.00;;;;;;2105045;28;20032;-71
2022/02/19 00:07:11;;;;;;;6.32;1.83;;;8.20;66.00;;;;;;2097001;28;20037;-71
2022/02/19 00:08:14;;;;;;;5.03;1.73;;;8.20;66.80;;;;;;2096878;28;20028;-71
2022/02/19 00:09:15;;;;;;;6.20;1.70;;;8.20;66.70;;;;;;2097407;28;20024;-72
2022/02/19 00:10:16;;;;;;;5.95;1.60;;;8.20;66.30;;;;;;2097216;28;20105;-72
2022/02/19 00:11:20;;;;;;;7.13;1.73;;;8.20;66.00;;;;;;2097141;28;20021;-72
2022/02/19 00:12:29;;;;;;;5.80;1.70;;;8.20;67.30;;;;;;2097240;28;20319;-70
2022/02/19 00:13:30;;;;;;;5.30;1.55;;;8.10;66.60;;;;;;2098017;28;20033;-72
2022/02/19 00:14:31;;;;;;;6.40;2.13;;;8.10;66.00;;;;;;2097853;28;20035;-72
2022/02/19 00:15:31;;;;;;;5.43;1.55;;;8.10;66.60;;;;;;2097111;28;20028;-72
2022/02/19 00:16:32;;;;;;;7.18;2.08;;;8.10;66.00;;;;;;2097501;28;20547;-73
2022/02/19 00:17:33;;;;;;;7.28;1.67;;;8.10;65.30;;;;;;2098084;28;20040;-74
2022/02/19 00:18:34;;;;;;;6.88;1.80;;;8.20;63.20;;;;;;2098558;28;20024;-73
2022/02/19 00:19:35;;;;;;;6.53;1.70;;;8.30;63.00;;;;;;2098391;28;20037;-70
2022/02/19 00:20:36;;;;;;;4.15;1.70;;;8.30;63.50;;;;;;2106341;28;20050;-72
2022/02/19 00:21:37;;;;;;;5.68;1.65;;;8.30;62.40;;;;;;2106041;28;20507;-70
2022/02/19 00:22:41;;;;;;;4.75;1.70;;;8.30;63.60;;;;;;2097417;28;20578;-72
2022/02/19 00:23:42;;;;;;;5.55;1.90;;;8.30;64.20;;;;;;2098407;28;20024;-71
2022/02/19 00:24:43;;;;;;;5.78;1.90;;;8.30;62.90;;;;;;2099310;28;20027;-72
2022/02/19 00:25:47;;;;;;;6.65;1.73;;;8.30;63.20;;;;;;2098224;28;20524;-71
2022/02/19 00:26:47;;;;;;;4.20;1.70;;;8.40;62.90;;;;;;2098388;28;20032;-72
2022/02/19 00:27:48;;;;;;;5.60;1.58;;;8.30;63.90;;;;;;2114194;28;20035;-72
2022/02/19 00:28:49;;;;;;;5.20;1.70;;;8.30;64.20;;;;;;2114372;28;20062;-71
2022/02/19 00:29:50;;;;;;;6.55;1.75;;;8.20;64.20;;;;;;2097889;28;20103;-71
2022/02/19 00:30:52;;;;;;;7.25;1.90;;;8.20;63.70;;;;;;2097885;28;20020;-72
2022/02/19 00:31:55;;;;;;;7.53;1.75;;;8.20;64.30;;;;;;2097832;28;20026;-73
2022/02/19 00:32:55;;;;;;;5.40;1.60;;;8.10;63.30;;;;;;2096536;28;20033;-73
2022/02/19 00:33:56;;;;;;;6.13;1.60;;;8.20;63.10;;;;;;2096899;28;20114;-72
2022/02/19 00:34:57;;;;;;;7.35;1.65;;;8.10;62.50;;;;;;2097881;28;20017;-72
2022/02/19 00:35:58;;;;;;;7.07;1.77;;;8.10;62.40;;;;;;2097770;28;20048;-72
2022/02/19 00:37:00;;;;;;;6.95;1.80;;;8.10;61.60;;;;;;2097873;28;20823;-72
2022/02/19 00:38:02;;;;;;;5.43;1.60;;;8.20;61.40;;;;;;2097649;28;20029;-74
2022/02/19 00:39:04;;;;;;;6.45;1.70;;;8.20;61.70;;;;;;2097531;28;20012;-73
2022/02/19 00:40:05;;;;;;;4.80;1.70;;;8.20;61.30;;;;;;2097503;28;20225;-76
2022/02/19 00:41:10;;;;;;;8.02;1.85;;;8.10;62.80;;;;;;2097385;28;20412;-75
2022/02/19 00:42:11;;;;;;;6.18;1.70;;;8.10;62.40;;;;;;2097246;28;20039;-74
2022/02/19 00:43:12;;;;;;;8.85;1.90;;;8.00;62.30;;;;;;2098037;28;20480;-74
2022/02/19 00:44:13;;;;;;;8.32;2.05;;;8.00;61.30;;;;;;2105846;28;20026;-74
2022/02/19 00:45:17;;;;;;;8.73;1.95;;;8.00;62.20;;;;;;2105841;28;20685;-74
2022/02/19 00:46:19;;;;;;;8.55;1.83;;;8.00;62.20;;;;;;2097313;28;20036;-74
2022/02/19 00:47:21;;;;;;;8.23;2.10;;;7.90;62.50;;;;;;2100081;28;20109;-73
2022/02/19 00:48:23;;;;;;;7.97;1.88;;;7.90;61.60;;;;;;2098247;28;20060;-74
2022/02/19 00:49:27;;;;;;;6.88;1.80;;;7.90;62.40;;;;;;2102653;28;20027;-75
2022/02/19 00:50:32;;;;;;;10.52;1.95;;;7.90;62.10;;;;;;2098090;28;20044;-74
2022/02/19 00:51:35;;;;;;;7.65;1.80;;;7.90;61.60;;;;;;2098830;28;20123;-73
2022/02/19 00:52:43;;;;;;;7.80;1.92;;;7.90;62.50;;;;;;2099621;28;20028;-73
2022/02/19 00:53:53;;;;;;;6.80;1.60;;;7.90;62.40;;;;;;2106423;28;20028;-72
2022/02/19 00:54:54;;;;;;;6.28;1.60;;;7.90;62.60;;;;;;2104104;28;20039;-74
2022/02/19 00:56:18;;;;;;;5.82;1.70;;;7.80;62.60;;;;;;2097053;28;20516;-71
2022/02/19 00:57:19;;;;;;;8.45;2.10;;;7.90;60.20;;;;;;2091911;28;20040;-71
2022/02/19 00:58:20;;;;;;;5.88;1.60;;;7.90;61.80;;;;;;2095102;28;20036;-72
2022/02/19 00:59:25;;;;;;;8.75;1.77;;;7.90;62.50;;;;;;2097222;28;20033;-71
2022/02/19 01:00:26;;;;;;;7.07;1.92;;;7.90;62.60;;;;;;2097779;28;20118;-71
2022/02/19 01:01:45;;;;;;;4.93;1.50;;;7.80;60.70;;;;;;2094581;28;20037;-68
2022/02/19 01:03:05;;;;;;;8.77;1.83;;;7.80;61.80;;;;;;2092875;28;20029;-70
2022/02/19 01:04:06;;;;;;;5.35;1.65;;;7.80;61.70;;;;;;2096977;28;20491;-70
2022/02/19 01:05:07;;;;;;;6.13;1.50;;;7.80;61.70;;;;;;2097209;28;20035;-71
2022/02/19 01:06:08;;;;;;;7.57;1.80;;;7.80;61.70;;;;;;2097628;28;20028;-69
2022/02/19 01:07:10;;;;;;;5.75;1.83;;;7.80;61.80;;;;;;2097085;28;20071;-69
2022/02/19 01:08:10;;;;;;;6.15;2.05;;;7.70;61.60;;;;;;2097426;28;20036;-69
2022/02/19 01:09:11;;;;;;;7.53;1.77;;;7.70;60.10;;;;;;2096792;28;20497;-70
2022/02/19 01:10:12;;;;;;;6.75;1.48;;;7.80;60.00;;;;;;2096791;28;20051;-70
2022/02/19 01:11:13;;;;;;;5.05;1.75;;;7.80;59.40;;;;;;2092088;28;20025;-70
2022/02/19 01:12:15;;;;;;;5.63;1.58;;;7.80;60.00;;;;;;2088334;28;20028;-70
2022/02/19 01:13:17;;;;;;;4.55;1.80;;;7.90;59.40;;;;;;2088356;28;20059;-70
2022/02/19 01:14:17;;;;;;;7.80;1.73;;;7.90;59.50;;;;;;2096585;28;20360;-70
2022/02/19 01:15:18;;;;;;;10.38;1.85;;;7.90;58.70;;;;;;2097154;28;20466;-74
2022/02/19 01:16:19;;;;;;;6.65;2.03;;;7.90;58.00;;;;;;2097528;28;20024;-72
2022/02/19 01:17:21;;;;;;;7.38;1.80;;;7.90;58.10;;;;;;2096705;28;20039;-71
2022/02/19 01:18:22;;;;;;;8.07;2.05;;;7.90;57.90;;;;;;2096751;28;20028;-71
2022/02/19 01:19:22;;;;;;;7.50;1.77;;;7.90;59.20;;;;;;2088402;28;20036;-71
2022/02/19 01:20:23;;;;;;;8.15;2.00;;;7.80;59.50;;;;;;2088429;28;20032;-71
2022/02/19 01:21:24;;;;;;;6.43;1.70;;;7.80;59.70;;;;;;2088279;28;20059;-70
2022/02/19 01:22:24;;;;;;;6.50;1.90;;;7.80;59.30;;;;;;2088038;28;20461;-70
2022/02/19 01:23:26;;;;;;;8.27;2.00;;;7.80;58.50;;;;;;2088324;28;20530;-70
2022/02/19 01:24:26;;;;;;;7.80;1.95;;;7.70;59.60;;;;;;2096463;28;20079;-70
2022/02/19 01:25:33;;;;;;;6.25;1.70;;;7.70;58.40;;;;;;2088168;28;20060;-70
2022/02/19 01:26:33;;;;;;;7.55;1.77;;;7.70;59.70;;;;;;2092484;28;20810;-71
2022/02/19 01:27:34;;;;;;;7.63;2.00;;;7.70;59.30;;;;;;2080136;28;20026;-70
2022/02/19 01:28:36;;;;;;;6.82;1.73;;;7.60;59.90;;;;;;2088176;28;20029;-70
2022/02/19 01:29:37;;;;;;;8.20;1.80;;;7.60;59.20;;;;;;2088529;28;20048;-71
2022/02/19 01:30:38;;;;;;;5.35;1.75;;;7.60;60.60;;;;;;2088171;28;20094;-69
2022/02/19 01:31:38;;;;;;;7.60;1.95;;;7.60;59.80;;;;;;2091438;28;20560;-70
2022/02/19 01:32:39;;;;;;;10.38;1.92;;;7.50;60.60;;;;;;2087537;28;20158;-69
2022/02/19 01:33:42;;;;;;;6.47;1.83;;;7.40;61.80;;;;;;2088402;28;20112;-69
2022/02/19 01:34:46;;;;;;;6.68;1.70;;;7.40;60.90;;;;;;2088188;28;20444;-69
2022/02/19 01:35:47;;;;;;;6.47;1.80;;;7.40;60.90;;;;;;2096466;28;20048;-68
2022/02/19 01:36:48;;;;;;;8.05;1.90;;;7.30;60.70;;;;;;2096330;28;20031;-69
2022/02/19 01:37:51;;;;;;;6.90;1.77;;;7.30;60.30;;;;;;2088411;28;20108;-70
2022/02/19 01:38:52;;;;;;;6.03;1.80;;;7.30;60.40;;;;;;2088117;28;20064;-70
2022/02/19 01:39:53;;;;;;;8.93;2.00;;;7.30;60.50;;;;;;2088224;28;20056;-69
2022/02/19 01:40:54;;;;;;;6.97;1.90;;;7.30;60.50;;;;;;2087845;28;20033;-70
2022/02/19 01:41:55;;;;;;;7.38;2.10;;;7.30;60.30;;;;;;2096173;28;20195;-69
2022/02/19 01:42:56;;;;;;;8.75;2.05;;;7.30;61.10;;;;;;2087497;28;20548;-70
2022/02/19 01:44:08;;;;;;;5.60;1.60;;;7.30;61.90;;;;;;2088084;28;20025;-69
2022/02/19 01:45:13;;;;;;;6.47;1.95;;;7.20;61.90;;;;;;2085786;28;20115;-70
2022/02/19 01:46:14;;;;;;;5.90;1.55;;;7.30;62.40;;;;;;2096352;28;20121;-69
2022/02/19 01:47:15;;;;;;;8.68;1.80;;;7.20;62.70;;;;;;2087965;28;20036;-68
2022/02/19 01:48:16;;;;;;;6.57;1.80;;;7.20;63.40;;;;;;2088348;28;20520;-74
2022/02/19 01:49:17;;;;;;;6.47;1.85;;;7.20;63.40;;;;;;2096314;28;20111;-73
2022/02/19 01:50:18;;;;;;;9.73;2.10;;;7.20;63.40;;;;;;2096027;28;20078;-73
2022/02/19 01:51:21;;;;;;;6.28;1.67;;;7.20;63.70;;;;;;2091517;28;20029;-72
2022/02/19 01:52:24;;;;;;;8.52;2.03;;;7.20;64.20;;;;;;2087804;28;20025;-72
2022/02/19 01:53:24;;;;;;;6.43;1.73;;;7.20;64.00;;;;;;2095025;28;20701;-71
2022/02/19 01:54:31;;;;;;;7.90;1.90;;;7.30;64.20;;;;;;2096213;28;20339;-70
2022/02/19 01:55:39;;;;;;;5.80;1.80;;;7.30;64.20;;;;;;2093010;28;20028;-70
2022/02/19 01:56:47;;;;;;;6.55;1.77;;;7.20;64.50;;;;;;2088863;28;20021;-70
2022/02/19 01:58:05;;;;;;;6.88;1.88;;;7.30;64.20;;;;;;2090592;28;20032;-70
2022/02/19 01:59:30;;;;;;;7.00;1.90;;;7.20;64.90;;;;;;2058317;28;20023;-71
2022/02/19 02:01:02;;;;;;;7.05;1.90;;;7.20;64.00;;;;;;2068313;28;20037;-70
2022/02/19 02:02:29;;;;;;;5.70;1.90;;;7.20;63.90;;;;;;2067588;28;20125;-70
2022/02/19 02:03:49;;;;;;;6.57;1.70;;;7.20;64.00;;;;;;2094923;28;20853;-70
2022/02/19 02:05:00;;;;;;;9.77;2.00;;;7.20;64.40;;;;;;2096146;28;20523;-70
2022/02/19 02:08:16;;;;;;;7.50;1.83;;;7.20;64.40;;;;;;2092666;28;20032;-70
2022/02/19 02:09:21;;;;;;;6.45;1.95;;;7.20;64.90;;;;;;2095619;28;20032;-71
2022/02/19 02:10:22;;;;;;;6.70;1.75;;;7.10;66.00;;;;;;2096219;28;20020;-70
2022/02/19 02:11:23;;;;;;;6.07;2.15;;;7.10;64.30;;;;;;2087957;28;20032;-70
2022/02/19 02:12:32;;;;;;;7.65;2.00;;;7.10;63.60;;;;;;2088653;28;20032;-70
2022/02/19 02:13:39;;;;;;;7.05;2.00;;;7.20;62.90;;;;;;2080741;28;20724;-70
2022/02/19 02:14:41;;;;;;;10.48;2.15;;;7.20;63.60;;;;;;2087889;28;20025;-70
2022/02/19 02:15:52;;;;;;;8.98;2.00;;;7.20;62.50;;;;;;2096494;28;20017;-70
2022/02/19 02:17:10;;;;;;;10.93;2.08;;;7.20;62.80;;;;;;2082052;28;20053;-71
2022/02/19 02:18:10;;;;;;;7.55;2.03;;;7.20;62.80;;;;;;2082248;28;20025;-70
2022/02/19 02:19:11;;;;;;;7.00;2.00;;;7.30;63.10;;;;;;2094138;28;20029;-69
2022/02/19 02:20:26;;;;;;;8.93;2.17;;;7.20;63.30;;;;;;2096635;28;20504;-72
2022/02/19 02:21:27;;;;;;;9.32;2.00;;;7.20;63.80;;;;;;2096080;28;20063;-72
2022/02/19 02:22:28;;;;;;;6.38;1.95;;;7.20;64.20;;;;;;2094479;28;20028;-72
2022/02/19 02:23:29;;;;;;;8.07;2.30;;;7.20;64.00;;;;;;2097362;28;20083;-72
2022/02/19 02:24:32;;;;;;;7.38;2.10;;;7.20;64.10;;;;;;2097298;28;20040;-73
2022/02/19 02:25:33;;;;;;;8.00;2.25;;;7.10;65.00;;;;;;2090027;28;20021;-72
2022/02/19 02:26:38;;;;;;;8.23;2.20;;;7.20;63.20;;;;;;2082303;28;20027;-72
2022/02/19 02:27:40;;;;;;;7.68;2.00;;;7.20;62.90;;;;;;2090655;28;20059;-72
2022/02/19 02:28:41;;;;;;;7.07;2.03;;;7.20;63.50;;;;;;2090401;28;20021;-72
2022/02/19 02:29:45;;;;;;;8.80;2.20;;;7.20;63.50;;;;;;2091287;28;20105;-73
2022/02/19 02:30:49;;;;;;;8.25;1.83;;;7.20;63.30;;;;;;2091217;28;20091;-73
2022/02/19 02:31:53;;;;;;;9.95;1.92;;;7.10;64.50;;;;;;2097352;28;20016;-72
2022/02/19 02:32:53;;;;;;;8.07;1.95;;;7.10;63.70;;;;;;2097750;28;20077;-71
2022/02/19 02:33:54;;;;;;;9.35;2.10;;;7.10;63.60;;;;;;2097105;28;20028;-73
2022/02/19 02:34:55;;;;;;;6.28;1.73;;;7.10;63.10;;;;;;2088740;28;20484;-72
2022/02/19 02:35:57;;;;;;;8.77;1.95;;;7.10;62.90;;;;;;2089361;28;20064;-72
2022/02/19 02:37:07;;;;;;;7.35;1.80;;;7.20;63.30;;;;;;2090170;28;20029;-71
2022/02/19 02:38:08;;;;;;;9.23;2.08;;;7.20;63.70;;;;;;2096959;28;20028;-74
2022/02/19 02:39:09;;;;;;;8.27;2.08;;;7.20;63.10;;;;;;2096330;28;20048;-74
2022/02/19 02:40:11;;;;;;;9.27;2.03;;;7.30;63.80;;;;;;2088493;28;20492;-73
2022/02/19 02:41:14;;;;;;;11.07;2.10;;;7.20;64.20;;;;;;2080116;28;20664;-73
2022/02/19 02:42:16;;;;;;;6.60;1.70;;;7.20;64.50;;;;;;2088457;28;20033;-72
2022/02/19 02:43:18;;;;;;;9.65;2.20;;;7.20;63.50;;;;;;2095809;28;20029;-72
2022/02/19 02:44:18;;;;;;;8.15;2.03;;;7.20;63.80;;;;;;2087833;28;20032;-74
2022/02/19 02:45:20;;;;;;;8.00;1.80;;;7.20;64.00;;;;;;2096141;28;20035;-73
2022/02/19 02:46:22;;;;;;;7.47;1.85;;;7.20;64.60;;;;;;2095860;28;20028;-73
2022/02/19 02:47:24;;;;;;;8.15;1.90;;;7.20;64.90;;;;;;2083299;28;20748;-72
2022/02/19 02:48:26;;;;;;;6.85;2.10;;;7.10;65.60;;;;;;2089727;28;20037;-72
2022/02/19 02:49:27;;;;;;;9.02;1.98;;;7.10;65.50;;;;;;2089969;28;20051;-72
2022/02/19 02:50:28;;;;;;;8.45;2.00;;;7.10;64.70;;;;;;2090647;28;20029;-72
2022/02/19 02:51:31;;;;;;;9.35;2.13;;;7.20;64.90;;;;;;2090789;28;20021;-72
2022/02/19 02:52:32;;;;;;;9.13;2.10;;;7.20;65.90;;;;;;2098678;28;20013;-72
2022/02/19 02:53:33;;;;;;;10.55;2.10;;;7.20;64.60;;;;;;2098635;28;20490;-72
2022/02/19 02:54:36;;;;;;;7.57;1.80;;;7.20;65.50;;;;;;2098263;28;20060;-72
2022/02/19 02:55:37;;;;;;;7.93;2.03;;;7.20;65.90;;;;;;2098931;28;20029;-72
2022/02/19 02:56:37;;;;;;;7.40;1.90;;;7.20;65.50;;;;;;2097782;28;20052;-73
2022/02/19 02:57:39;;;;;;;7.55;1.92;;;7.20;66.40;;;;;;2099519;28;20034;-72
2022/02/19 02:58:39;;;;;;;6.15;2.00;;;7.20;66.30;;;;;;2098748;28;20029;-72
2022/02/19 02:59:42;;;;;;;8.13;2.03;;;7.10;66.70;;;;;;2099782;28;20036;-72
2022/02/19 03:00:43;;;;;;;5.80;1.85;;;7.10;67.10;;;;;;2098503;28;20106;-71
2022/02/19 03:01:44;;;;;;;9.00;2.20;;;7.10;67.50;;;;;;2091173;28;20032;-72
2022/02/19 03:02:44;;;;;;;7.10;2.05;;;7.10;67.70;;;;;;2102388;28;20048;-72
2022/02/19 03:03:46;;;;;;;6.78;2.05;;;7.00;67.80;;;;;;2096508;28;20029;-72
2022/02/19 03:04:48;;;;;;;8.05;2.15;;;7.00;67.80;;;;;;2104390;28;20023;-72
2022/02/19 03:05:48;;;;;;;6.28;1.92;;;7.00;67.30;;;;;;2106238;28;20048;-72
2022/02/19 03:06:51;;;;;;;7.68;2.10;;;7.00;67.10;;;;;;2106218;28;20031;-72
2022/02/19 03:07:52;;;;;;;6.40;2.13;;;7.10;67.00;;;;;;2098340;28;20053;-72
2022/02/19 03:08:53;;;;;;;5.43;1.70;;;7.10;66.60;;;;;;2097868;28;20017;-74
2022/02/19 03:09:54;;;;;;;11.65;2.15;;;7.20;66.10;;;;;;2104716;28;20038;-73
2022/02/19 03:10:55;;;;;;;6.65;1.77;;;7.20;66.30;;;;;;2105375;28;20492;-72
2022/02/19 03:11:56;;;;;;;5.70;1.85;;;7.20;66.60;;;;;;2088339;28;20060;-72
2022/02/19 03:12:56;;;;;;;7.20;1.90;;;7.20;66.50;;;;;;2096286;28;20048;-73
2022/02/19 03:13:59;;;;;;;5.35;1.75;;;7.10;66.10;;;;;;2095784;28;20029;-73
2022/02/19 03:15:01;;;;;;;7.47;1.98;;;7.20;66.40;;;;;;2099606;28;20031;-73
2022/02/19 03:16:01;;;;;;;5.85;1.67;;;7.10;65.90;;;;;;2100404;28;20094;-74
2022/02/19 03:17:03;;;;;;;6.30;1.80;;;7.10;67.50;;;;;;2092273;28;20033;-72
2022/02/19 03:18:05;;;;;;;6.68;2.03;;;7.10;67.50;;;;;;2092450;28;20024;-72
2022/02/19 03:19:06;;;;;;;6.78;1.80;;;7.10;67.10;;;;;;2098003;28;20485;-73
2022/02/19 03:20:08;;;;;;;6.38;2.00;;;7.10;66.70;;;;;;2100735;28;20423;-73
2022/02/19 03:21:09;;;;;;;6.97;1.70;;;7.10;67.10;;;;;;2092711;28;20025;-73
2022/02/19 03:22:10;;;;;;;8.70;2.00;;;7.10;68.40;;;;;;2090938;28;20732;-72
2022/02/19 03:23:11;;;;;;;8.40;1.90;;;7.00;68.00;;;;;;2099549;28;20710;-74
2022/02/19 03:24:12;;;;;;;7.10;2.00;;;7.10;68.50;;;;;;2099988;28;20048;-72
2022/02/19 03:25:14;;;;;;;7.13;2.00;;;7.00;70.20;;;;;;2100230;28;20063;-73
2022/02/19 03:26:16;;;;;;;10.55;2.38;;;7.00;70.50;;;;;;2091954;28;20025;-73
2022/02/19 03:27:17;;;;;;;7.45;1.90;;;7.00;71.80;;;;;;2094030;28;20033;-73
2022/02/19 03:28:17;;;;;;;8.27;2.05;;;6.90;71.40;;;;;;2099986;28;20539;-73
2022/02/19 03:29:19;;;;;;;9.38;1.88;;;6.90;71.90;;;;;;2100110;28;20532;-73
2022/02/19 03:30:23;;;;;;;9.00;1.88;;;6.90;71.20;;;;;;2099344;28;20119;-73
2022/02/19 03:31:24;;;;;;;6.70;2.20;;;6.90;71.90;;;;;;2090722;28;20017;-72
2022/02/19 03:32:32;;;;;;;9.07;2.00;;;6.90;72.10;;;;;;2099512;28;20021;-73
2022/02/19 03:33:33;;;;;;;8.60;2.08;;;6.90;73.00;;;;;;2099660;28;20049;-74
2022/02/19 03:34:34;;;;;;;11.35;2.38;;;6.80;72.80;;;;;;2099429;28;20423;-74
2022/02/19 03:35:35;;;;;;;11.07;2.10;;;6.80;73.20;;;;;;2090928;28;20025;-72
2022/02/19 03:36:39;;;;;;;9.82;2.30;;;6.80;73.60;;;;;;2091789;28;20122;-72
2022/02/19 03:37:40;;;;;;;7.40;2.00;;;6.80;73.30;;;;;;2099983;28;20677;-72
2022/02/19 03:38:52;;;;;;;7.85;1.90;;;6.80;72.80;;;;;;2091889;28;20025;-74
2022/02/19 03:40:06;;;;;;;9.70;2.40;;;6.80;73.40;;;;;;2091650;28;20519;-73
2022/02/19 03:41:07;;;;;;;8.65;2.13;;;6.80;73.90;;;;;;2098826;28;20040;-73
2022/02/19 03:42:07;;;;;;;10.52;2.00;;;6.70;74.80;;;;;;2098375;28;20673;-73
2022/02/19 03:43:08;;;;;;;9.63;2.17;;;6.70;74.40;;;;;;2099018;28;20040;-73
2022/02/19 03:44:11;;;;;;;5.75;1.90;;;6.70;73.10;;;;;;2091132;28;20029;-72
2022/02/19 03:45:19;;;;;;;10.02;1.98;;;6.70;72.70;;;;;;2091803;28;20161;-73
2022/02/19 03:46:30;;;;;;;8.82;2.00;;;6.70;73.50;;;;;;2097750;28;20032;-72
2022/02/19 03:47:49;;;;;;;7.70;1.80;;;6.70;73.00;;;;;;2092613;28;20166;-72
2022/02/19 03:48:52;;;;;;;9.85;2.05;;;6.60;74.10;;;;;;2089749;28;20079;-73
2022/02/19 03:49:55;;;;;;;7.18;1.77;;;6.60;73.80;;;;;;2089866;28;20029;-72
2022/02/19 03:50:56;;;;;;;7.75;1.92;;;6.60;73.60;;;;;;2089871;28;20009;-72
2022/02/19 03:51:56;;;;;;;7.25;2.00;;;6.50;74.00;;;;;;2089766;28;20579;-73
2022/02/19 03:52:57;;;;;;;9.13;2.05;;;6.50;74.10;;;;;;2090443;28;20589;-72
2022/02/19 03:54:07;;;;;;;6.78;2.00;;;6.50;73.00;;;;;;2099296;28;20028;-73
2022/02/19 03:55:09;;;;;;;10.68;2.08;;;6.50;74.40;;;;;;2098795;28;20094;-72
2022/02/19 03:56:10;;;;;;;9.00;1.92;;;6.40;73.60;;;;;;2090141;28;20056;-72
2022/02/19 03:57:11;;;;;;;8.02;1.90;;;6.50;72.60;;;;;;2091155;28;20516;-72
2022/02/19 03:58:12;;;;;;;9.77;2.10;;;6.50;72.70;;;;;;2091429;28;20086;-72
2022/02/19 03:59:14;;;;;;;7.68;2.20;;;6.40;73.90;;;;;;2091061;28;20079;-72
2022/02/19 04:00:15;;;;;;;8.05;1.90;;;6.40;74.00;;;;;;2098681;28;20035;-72
2022/02/19 04:01:16;;;;;;;9.82;2.45;;;6.40;73.50;;;;;;2099385;28;20385;-72
2022/02/19 04:02:20;;;;;;;9.57;2.03;;;6.40;74.20;;;;;;2098651;28;20020;-72
2022/02/19 04:03:23;;;;;;;10.60;2.10;;;6.40;74.50;;;;;;2090575;28;20025;-72
2022/02/19 04:04:23;;;;;;;8.48;2.10;;;6.30;74.00;;;;;;2082067;28;20520;-72
2022/02/19 04:05:24;;;;;;;8.68;1.90;;;6.30;75.60;;;;;;2090258;28;20553;-73
2022/02/19 04:06:26;;;;;;;7.35;1.90;;;6.30;75.50;;;;;;2098159;28;20027;-72
2022/02/19 04:07:27;;;;;;;7.43;1.80;;;6.30;75.30;;;;;;2089864;28;20029;-72
2022/02/19 04:08:35;;;;;;;6.88;1.70;;;6.30;75.80;;;;;;2097944;28;20515;-72
2022/02/19 04:09:36;;;;;;;7.18;1.88;;;6.30;74.90;;;;;;2089324;28;20035;-72
2022/02/19 04:10:39;;;;;;;6.15;1.95;;;6.20;75.80;;;;;;2089303;28;20025;-72
2022/02/19 04:11:39;;;;;;;8.43;1.83;;;6.20;73.70;;;;;;2089374;28;20459;-73
2022/02/19 04:12:40;;;;;;;9.98;2.45;;;6.30;71.80;;;;;;2090695;28;20028;-74
2022/02/19 04:13:44;;;;;;;6.22;1.75;;;6.30;72.10;;;;;;2088685;28;20508;-72
2022/02/19 04:14:48;;;;;;;8.45;1.90;;;6.30;71.00;;;;;;2082781;28;20036;-72
2022/02/19 04:15:49;;;;;;;9.27;2.00;;;6.30;70.80;;;;;;2089512;28;20488;-73
2022/02/19 04:16:50;;;;;;;5.97;1.92;;;6.30;71.70;;;;;;2080578;28;20186;-71
2022/02/19 04:17:52;;;;;;;7.78;1.65;;;6.30;70.60;;;;;;2081571;28;20038;-72
2022/02/19 04:18:53;;;;;;;7.30;1.83;;;6.30;71.30;;;;;;2089922;28;20144;-72
2022/02/19 04:19:55;;;;;;;8.85;2.00;;;6.30;70.00;;;;;;2081368;28;20025;-71
2022/02/19 04:20:55;;;;;;;7.70;2.00;;;6.40;68.40;;;;;;2081207;28;20035;-74
2022/02/19 04:21:56;;;;;;;5.28;1.65;;;6.40;69.00;;;;;;2089068;28;20033;-73
2022/02/19 04:22:59;;;;;;;5.57;1.90;;;6.40;68.90;;;;;;2089435;28;20021;-72
2022/02/19 04:24:01;;;;;;;8.10;1.85;;;6.40;68.50;;;;;;2089018;28;20594;-74
2022/02/19 04:25:02;;;;;;;7.75;1.73;;;6.30;68.60;;;;;;2089050;28;20045;-71
2022/02/19 04:26:05;;;;;;;7.22;1.75;;;6.30;68.60;;;;;;2089439;28;20067;-74
2022/02/19 04:27:19;;;;;;;6.32;1.83;;;6.30;69.20;;;;;;2097489;28;20032;-74
2022/02/19 04:28:21;;;;;;;7.20;2.10;;;6.30;69.30;;;;;;2089339;28;20049;-74
2022/02/19 04:29:24;;;;;;;8.43;1.80;;;6.30;70.70;;;;;;2089886;28;20084;-74
2022/02/19 04:30:28;;;;;;;6.95;1.90;;;6.30;71.10;;;;;;2097672;28;20038;-73
2022/02/19 04:31:33;;;;;;;6.45;2.00;;;6.30;69.60;;;;;;2097169;28;20029;-72
2022/02/19 04:32:40;;;;;;;6.97;1.92;;;6.30;70.40;;;;;;2097576;28;20090;-73
2022/02/19 04:33:41;;;;;;;7.20;2.13;;;6.20;70.30;;;;;;2089074;28;20025;-72
2022/02/19 04:34:42;;;;;;;8.90;1.80;;;6.30;70.00;;;;;;2088980;28;20024;-73
2022/02/19 04:35:45;;;;;;;5.65;1.60;;;6.30;70.20;;;;;;2097341;28;20128;-70
2022/02/19 04:36:46;;;;;;;7.78;1.90;;;6.30;69.60;;;;;;2089053;28;20020;-72
2022/02/19 04:37:46;;;;;;;4.78;1.63;;;6.30;69.30;;;;;;2097427;28;20036;-72
2022/02/19 04:38:47;;;;;;;5.93;1.75;;;6.20;69.60;;;;;;2089084;28;20033;-72
2022/02/19 04:39:48;;;;;;;5.00;1.60;;;6.20;69.60;;;;;;2088953;28;20017;-72
2022/02/19 04:40:57;;;;;;;4.80;1.50;;;6.30;69.20;;;;;;2090548;28;20021;-73
2022/02/19 04:41:58;;;;;;;5.13;1.60;;;6.20;69.80;;;;;;2080618;28;20057;-73
2022/02/19 04:42:59;;;;;;;5.80;1.60;;;6.30;70.80;;;;;;2080954;28;20088;-73
2022/02/19 04:44:05;;;;;;;6.53;1.70;;;6.20;70.70;;;;;;2089748;28;20550;-72
2022/02/19 04:45:06;;;;;;;6.68;1.73;;;6.20;70.50;;;;;;2097298;28;20035;-72
2022/02/19 04:46:12;;;;;;;4.78;1.60;;;6.20;70.30;;;;;;2097221;28;20704;-73
2022/02/19 04:47:14;;;;;;;6.50;1.85;;;6.20;70.10;;;;;;2081023;28;20036;-73
2022/02/19 04:48:18;;;;;;;6.57;1.65;;;6.20;71.00;;;;;;2089507;28;20021;-73
2022/02/19 04:49:25;;;;;;;7.70;1.90;;;6.20;71.10;;;;;;2089945;28;20768;-73
2022/02/19 04:50:26;;;;;;;7.50;1.77;;;6.20;71.30;;;;;;2097333;28;20020;-72
2022/02/19 04:51:28;;;;;;;4.55;1.65;;;6.20;70.80;;;;;;2097270;28;20076;-72
2022/02/19 04:52:29;;;;;;;5.38;1.67;;;6.20;71.90;;;;;;2090437;28;20102;-71
2022/02/19 04:53:31;;;;;;;5.32;1.50;;;6.20;72.10;;;;;;2089383;28;20585;-72
2022/02/19 04:54:31;;;;;;;5.85;1.52;;;6.20;71.20;;;;;;2097436;28;20071;-72
2022/02/19 04:55:34;;;;;;;6.80;1.88;;;6.20;71.20;;;;;;2097164;28;20036;-72
2022/02/19 04:56:42;;;;;;;6.35;1.70;;;6.20;71.60;;;;;;2096969;28;20032;-72
2022/02/19 04:57:45;;;;;;;6.55;1.88;;;6.10;72.50;;;;;;2089834;28;20420;-72
2022/02/19 04:58:48;;;;;;;6.13;1.70;;;6.10;72.80;;;;;;2090503;28;20071;-72
2022/02/19 04:59:49;;;;;;;5.40;1.60;;;6.10;72.90;;;;;;2080956;28;20036;-72
2022/02/19 05:00:53;;;;;;;6.63;1.70;;;6.10;72.60;;;;;;2089982;28;20104;-72
2022/02/19 05:01:54;;;;;;;6.38;1.60;;;6.10;72.70;;;;;;2098119;28;20041;-72
2022/02/19 05:03:03;;;;;;;6.60;1.70;;;6.10;72.60;;;;;;2097530;28;20032;-72
2022/02/19 05:04:07;;;;;;;4.78;1.50;;;6.00;73.60;;;;;;2097555;28;20039;-74
2022/02/19 05:05:17;;;;;;;7.28;1.45;;;6.00;73.80;;;;;;2098352;28;20511;-73
2022/02/19 05:06:22;;;;;;;6.95;1.77;;;6.00;73.90;;;;;;2097982;28;20523;-72
2022/02/19 05:07:32;;;;;;;8.05;1.85;;;6.00;74.60;;;;;;2090055;28;20044;-74
2022/02/19 05:08:32;;;;;;;9.32;1.70;;;6.00;74.60;;;;;;2080549;28;20119;-73
2022/02/19 05:09:34;;;;;;;6.97;1.60;;;6.00;74.60;;;;;;2089129;28;20588;-73
2022/02/19 05:10:40;;;;;;;6.55;1.90;;;5.90;75.10;;;;;;2090125;28;20029;-72
2022/02/19 05:11:41;;;;;;;8.15;1.80;;;5.90;74.90;;;;;;2096657;28;20013;-73
2022/02/19 05:12:44;;;;;;;5.93;1.70;;;5.90;76.10;;;;;;2096722;28;20040;-73
2022/02/19 05:13:48;;;;;;;7.18;1.73;;;5.90;76.30;;;;;;2089579;28;20056;-73
2022/02/19 05:14:49;;;;;;;5.25;1.58;;;5.90;76.50;;;;;;2088770;28;20504;-73
2022/02/19 05:15:57;;;;;;;7.10;1.65;;;5.90;76.80;;;;;;2089597;28;20040;-73
2022/02/19 05:17:07;;;;;;;6.80;1.67;;;5.90;75.50;;;;;;2089892;28;20017;-73
2022/02/19 05:18:17;;;;;;;6.80;1.77;;;5.90;75.20;;;;;;2089771;28;20440;-73
2022/02/19 05:19:18;;;;;;;6.68;1.67;;;5.90;75.70;;;;;;2088800;28;20270;-73
2022/02/19 05:20:23;;;;;;;7.47;1.73;;;5.80;76.80;;;;;;2080486;28;20018;-74
2022/02/19 05:21:24;;;;;;;5.88;1.70;;;5.80;75.50;;;;;;2081864;28;20033;-74
2022/02/19 05:22:28;;;;;;;5.05;1.77;;;5.80;76.20;;;;;;2096891;28;20087;-73
2022/02/19 05:23:32;;;;;;;9.43;1.90;;;5.80;76.80;;;;;;2089069;28;20119;-72
2022/02/19 05:24:33;;;;;;;7.07;1.52;;;5.80;76.30;;;;;;2096768;28;20479;-72
2022/02/19 05:25:55;;;;;;;7.07;1.73;;;5.80;76.40;;;;;;2097165;28;20078;-73
2022/02/19 05:26:55;;;;;;;6.85;1.67;;;5.80;76.20;;;;;;2088293;28;20040;-72
2022/02/19 05:27:58;;;;;;;8.20;1.77;;;5.80;76.10;;;;;;2088956;28;20032;-71
2022/02/19 05:28:59;;;;;;;6.72;1.67;;;5.80;76.30;;;;;;2088841;28;20506;-72
2022/02/19 05:30:00;;;;;;;6.28;1.60;;;5.80;77.00;;;;;;2088772;28;20036;-72
2022/02/19 05:31:04;;;;;;;7.25;1.77;;;5.80;76.50;;;;;;2080649;28;20033;-73
2022/02/19 05:32:28;;;;;;;11.13;1.92;;;5.70;77.60;;;;;;2087343;28;20494;-72
2022/02/19 05:33:36;;;;;;;6.80;1.50;;;5.70;78.80;;;;;;2089502;28;20519;-72
2022/02/19 05:34:37;;;;;;;6.80;1.60;;;5.70;79.30;;;;;;2088832;28;20033;-74
2022/02/19 05:35:40;;;;;;;8.88;1.80;;;5.60;79.60;;;;;;2088521;28;20480;-72